Time;durP1;ratioP1;P1;durP2;ratioP2;P2;SDS_P1;SDS_P2;PMS_P1;PMS_P2;Temp;Humidity;BMP_temperature;BMP_pressure;BME280_temperature;BME280_humidity;BME280_pressure;Samples;Min_cycle;Max_cycle;Signal;HPM_P1;HPM_P2
2022/05/16 00:00:31;;;;;;;7.68;3.10;;;13.70;99.90;;;;;;4920955;29;20403;-76
2022/05/16 00:03:01;;;;;;;6.45;2.83;;;13.60;99.90;;;;;;4936728;29;20113;-76
2022/05/16 00:05:27;;;;;;;7.22;3.60;;;13.70;99.90;;;;;;4936690;29;20714;-76
2022/05/16 00:07:55;;;;;;;6.03;3.38;;;13.70;99.90;;;;;;4920769;29;20043;-77
2022/05/16 00:10:21;;;;;;;8.68;3.22;;;13.70;99.90;;;;;;4920498;29;20175;-77
2022/05/16 00:12:47;;;;;;;4.82;3.10;;;13.60;99.90;;;;;;4936584;28;20063;-76
2022/05/16 00:15:15;;;;;;;10.13;3.17;;;13.60;99.90;;;;;;4920732;29;20494;-77
2022/05/16 00:17:41;;;;;;;6.00;3.38;;;13.60;99.90;;;;;;4920393;29;20047;-76
2022/05/16 00:20:08;;;;;;;5.45;3.17;;;13.60;99.90;;;;;;4936494;29;20402;-76
2022/05/16 00:22:37;;;;;;;7.22;3.47;;;13.60;99.90;;;;;;4920684;29;20097;-76
2022/05/16 00:25:06;;;;;;;7.72;3.58;;;13.60;99.90;;;;;;4920197;28;20046;-77
2022/05/16 00:27:34;;;;;;;6.82;3.22;;;13.60;99.90;;;;;;4920384;29;20487;-76
2022/05/16 00:30:02;;;;;;;8.95;3.30;;;13.60;99.90;;;;;;4920589;29;20054;-76
2022/05/16 00:32:28;;;;;;;6.70;3.30;;;13.60;99.90;;;;;;4920397;29;20106;-76
2022/05/16 00:34:53;;;;;;;6.55;3.35;;;13.50;99.90;;;;;;4936294;29;20047;-76
2022/05/16 00:37:19;;;;;;;8.07;3.38;;;13.60;99.90;;;;;;4951900;28;20067;-76
2022/05/16 00:39:45;;;;;;;6.70;3.35;;;13.50;99.90;;;;;;4920140;28;20486;-76
2022/05/16 00:42:12;;;;;;;7.60;3.45;;;13.50;99.90;;;;;;4920440;29;20072;-78
2022/05/16 00:44:38;;;;;;;6.88;3.35;;;13.40;99.90;;;;;;4919618;28;20066;-76
2022/05/16 00:47:05;;;;;;;5.47;3.10;;;13.50;99.90;;;;;;4920270;29;20130;-76
2022/05/16 00:49:36;;;;;;;4.68;3.20;;;13.40;99.90;;;;;;4935764;29;20472;-77
2022/05/16 00:52:08;;;;;;;6.55;3.58;;;13.40;99.90;;;;;;4951818;28;20043;-76
2022/05/16 00:54:45;;;;;;;5.03;3.35;;;13.30;99.90;;;;;;4920241;28;20039;-76
2022/05/16 00:57:15;;;;;;;6.75;3.58;;;13.30;99.90;;;;;;4936038;29;20044;-78
2022/05/16 00:59:58;;;;;;;6.03;3.35;;;13.30;99.90;;;;;;4951573;28;20082;-76
2022/05/16 01:05:11;;;;;;;6.40;2.92;;;13.20;99.90;;;;;;4951712;28;19926;-76
2022/05/16 01:07:42;;;;;;;8.88;3.63;;;13.20;99.90;;;;;;4936033;29;20051;-76
2022/05/16 01:10:11;;;;;;;8.25;3.40;;;13.20;99.90;;;;;;4951771;28;20498;-76
2022/05/16 01:12:41;;;;;;;6.63;3.50;;;13.20;99.90;;;;;;4919916;29;20059;-76
2022/05/16 01:15:14;;;;;;;7.10;3.30;;;13.10;99.90;;;;;;4919884;28;20110;-76
2022/05/16 01:17:39;;;;;;;9.63;3.45;;;13.20;99.90;;;;;;4919669;29;20055;-77
2022/05/16 01:20:07;;;;;;;7.80;3.20;;;13.20;99.90;;;;;;4919710;29;20035;-76
2022/05/16 01:22:40;;;;;;;7.30;3.35;;;13.20;99.90;;;;;;4919774;29;20039;-76
2022/05/16 01:25:15;;;;;;;6.95;3.67;;;13.20;99.90;;;;;;4935302;29;20043;-77
2022/05/16 01:27:48;;;;;;;9.88;3.38;;;13.20;99.90;;;;;;4935275;29;20047;-76
2022/05/16 01:30:16;;;;;;;8.10;4.07;;;13.10;99.90;;;;;;4935851;29;20074;-76
2022/05/16 01:32:42;;;;;;;6.95;3.10;;;13.20;99.90;;;;;;4919850;29;20391;-76
2022/05/16 01:35:08;;;;;;;6.22;3.20;;;13.20;99.90;;;;;;4935411;29;20097;-78
2022/05/16 01:40:20;;;;;;;7.35;3.33;;;13.10;99.90;;;;;;4951543;28;20079;-76
2022/05/16 01:42:46;;;;;;;8.57;3.47;;;13.00;99.90;;;;;;4951564;28;20035;-77
2022/05/16 01:45:12;;;;;;;6.15;3.78;;;13.00;99.90;;;;;;4919823;29;20126;-76
2022/05/16 01:47:38;;;;;;;6.10;4.43;;;13.00;99.90;;;;;;4919390;29;20577;-76
2022/05/16 01:50:04;;;;;;;6.30;3.13;;;13.00;99.90;;;;;;4919663;29;20043;-76
2022/05/16 01:52:29;;;;;;;8.10;3.60;;;12.90;99.90;;;;;;4951208;28;20074;-76
2022/05/16 01:54:55;;;;;;;7.32;3.50;;;12.90;99.90;;;;;;4935425;29;20078;-76
2022/05/16 01:57:21;;;;;;;4.95;3.28;;;12.90;99.90;;;;;;4922092;29;20047;-76
2022/05/16 01:59:46;;;;;;;5.28;3.00;;;12.90;99.90;;;;;;4938643;29;20058;-78
2022/05/16 02:02:12;;;;;;;10.35;3.30;;;12.90;99.90;;;;;;4938820;29;20035;-76
2022/05/16 02:04:38;;;;;;;7.82;3.80;;;12.90;99.90;;;;;;4954784;28;20166;-76
2022/05/16 02:07:06;;;;;;;5.55;3.30;;;12.90;99.90;;;;;;4938581;29;20517;-76
2022/05/16 02:09:32;;;;;;;7.65;3.40;;;12.90;99.90;;;;;;4922519;29;20035;-76
2022/05/16 02:11:57;;;;;;;5.97;3.63;;;12.90;99.90;;;;;;4954970;28;20051;-76
2022/05/16 02:14:23;;;;;;;9.65;3.92;;;12.90;99.90;;;;;;4923038;29;20047;-77
2022/05/16 02:16:49;;;;;;;7.90;3.90;;;12.90;99.90;;;;;;4938724;29;20039;-78
2022/05/16 02:19:15;;;;;;;6.95;3.13;;;12.90;99.90;;;;;;4922553;29;20042;-76
2022/05/16 02:24:40;;;;;;;7.72;3.45;;;12.80;99.90;;;;;;4954674;28;20050;-77
2022/05/16 02:27:08;;;;;;;6.80;3.90;;;12.90;99.90;;;;;;4922549;29;20050;-76
2022/05/16 02:29:37;;;;;;;6.30;3.20;;;12.80;99.90;;;;;;4937895;29;20134;-76
2022/05/16 02:32:04;;;;;;;7.90;3.50;;;12.80;99.90;;;;;;4922374;28;20044;-76
2022/05/16 02:34:30;;;;;;;8.65;3.72;;;12.80;99.90;;;;;;4922246;28;20466;-76
2022/05/16 02:36:56;;;;;;;7.82;4.00;;;12.70;99.90;;;;;;4922291;29;20129;-77
2022/05/16 02:39:24;;;;;;;5.90;3.80;;;12.80;99.90;;;;;;4953914;28;20051;-76
2022/05/16 02:41:51;;;;;;;6.10;3.25;;;12.60;99.90;;;;;;4938170;29;20050;-77
2022/05/16 02:44:17;;;;;;;8.10;3.55;;;12.60;99.90;;;;;;4953993;28;20065;-76
2022/05/16 02:46:42;;;;;;;8.32;3.90;;;12.70;99.90;;;;;;4937974;28;20494;-76
2022/05/16 02:49:11;;;;;;;5.60;3.30;;;12.60;99.90;;;;;;4937901;28;20130;-77
2022/05/16 02:51:37;;;;;;;7.30;3.63;;;12.60;99.90;;;;;;4922316;29;20050;-77
2022/05/16 02:54:03;;;;;;;6.03;3.20;;;12.60;99.90;;;;;;4922210;29;20039;-76
2022/05/16 02:56:32;;;;;;;6.45;3.53;;;12.60;99.90;;;;;;4921764;29;20401;-76
2022/05/16 02:58:58;;;;;;;9.30;3.60;;;12.60;99.90;;;;;;4937585;29;20067;-76
2022/05/16 03:01:27;;;;;;;11.52;4.00;;;12.50;99.90;;;;;;4921653;28;20046;-78
2022/05/16 03:03:53;;;;;;;7.15;3.60;;;12.50;99.90;;;;;;4937983;29;20474;-76
2022/05/16 03:06:18;;;;;;;8.65;3.55;;;12.50;99.90;;;;;;4921609;29;20134;-77
2022/05/16 03:08:44;;;;;;;6.03;3.20;;;12.50;99.90;;;;;;4921054;29;20138;-76
2022/05/16 03:11:10;;;;;;;10.10;3.63;;;12.40;99.90;;;;;;4953505;28;20478;-76
2022/05/16 03:13:36;;;;;;;6.43;3.50;;;12.40;99.90;;;;;;4921983;29;20050;-76
2022/05/16 03:16:03;;;;;;;6.85;3.72;;;12.40;99.90;;;;;;4937250;28;20039;-76
2022/05/16 03:18:30;;;;;;;6.20;3.55;;;12.30;99.90;;;;;;4921445;29;20039;-76
2022/05/16 03:20:57;;;;;;;7.40;3.40;;;12.30;99.90;;;;;;4921568;29;20145;-76
2022/05/16 03:23:25;;;;;;;8.70;3.45;;;12.30;99.90;;;;;;4937290;29;20079;-76
2022/05/16 03:25:51;;;;;;;8.10;3.83;;;12.30;99.90;;;;;;4921615;29;20047;-76
2022/05/16 03:28:17;;;;;;;7.95;3.28;;;12.20;99.90;;;;;;4921374;29;20397;-77
2022/05/16 03:30:43;;;;;;;5.90;3.00;;;12.30;99.90;;;;;;4921311;28;20126;-76
2022/05/16 03:33:12;;;;;;;6.28;3.22;;;12.20;99.90;;;;;;4921427;29;20375;-76
2022/05/16 03:35:37;;;;;;;8.10;3.40;;;12.20;99.90;;;;;;4954187;28;20514;-77
2022/05/16 03:38:04;;;;;;;6.80;3.25;;;12.30;99.90;;;;;;4936658;29;20138;-76
2022/05/16 03:40:42;;;;;;;8.60;3.03;;;12.30;99.90;;;;;;4952974;28;20506;-77
2022/05/16 03:43:09;;;;;;;6.90;3.58;;;12.30;99.90;;;;;;4937143;28;20378;-79
2022/05/16 03:45:36;;;;;;;7.25;3.53;;;12.30;99.90;;;;;;4920074;29;20057;-76
2022/05/16 03:48:02;;;;;;;5.50;3.45;;;12.30;99.90;;;;;;4920946;29;20494;-76
2022/05/16 03:50:27;;;;;;;8.43;3.22;;;12.40;99.90;;;;;;4936788;29;20045;-76
2022/05/16 03:52:53;;;;;;;7.10;3.30;;;12.40;99.90;;;;;;4936908;29;20450;-76
2022/05/16 03:55:19;;;;;;;8.02;3.15;;;12.30;99.90;;;;;;4920998;29;20046;-77
2022/05/16 03:57:45;;;;;;;6.35;3.40;;;12.40;99.90;;;;;;4936629;28;20043;-76
2022/05/16 04:00:14;;;;;;;9.35;3.13;;;12.40;99.90;;;;;;4936942;29;20042;-76
2022/05/16 04:02:40;;;;;;;7.13;2.90;;;12.40;99.90;;;;;;4936849;29;20074;-77
2022/05/16 04:05:08;;;;;;;6.43;3.28;;;12.30;99.90;;;;;;4936733;29;20118;-76
2022/05/16 04:07:35;;;;;;;6.97;3.13;;;12.40;99.90;;;;;;4936597;29;20062;-76
2022/05/16 04:10:01;;;;;;;7.03;3.05;;;12.40;99.90;;;;;;4920600;28;20047;-77
2022/05/16 04:12:27;;;;;;;6.55;2.92;;;12.40;99.90;;;;;;4936539;29;20137;-77
2022/05/16 04:14:52;;;;;;;4.47;2.80;;;12.40;99.90;;;;;;4936274;29;20047;-76
2022/05/16 04:17:19;;;;;;;7.03;3.15;;;12.40;99.90;;;;;;4920757;29;20066;-78
2022/05/16 04:19:45;;;;;;;8.50;3.45;;;12.40;99.90;;;;;;4919514;29;20097;-77
2022/05/16 04:22:12;;;;;;;6.32;2.80;;;12.50;99.90;;;;;;4936733;29;20497;-76
2022/05/16 04:24:38;;;;;;;7.35;3.22;;;12.50;99.90;;;;;;4920652;28;20042;-76
2022/05/16 04:27:04;;;;;;;5.53;2.78;;;12.40;99.90;;;;;;4921148;28;20130;-76
2022/05/16 04:29:30;;;;;;;7.38;3.20;;;12.50;99.90;;;;;;4936154;29;20126;-77
2022/05/16 04:31:56;;;;;;;5.57;2.97;;;12.50;99.90;;;;;;4936447;29;20130;-76
2022/05/16 04:34:22;;;;;;;4.68;3.10;;;12.50;99.90;;;;;;4952612;28;20051;-76
2022/05/16 04:36:47;;;;;;;7.68;3.33;;;12.60;99.90;;;;;;4951923;28;20113;-77
2022/05/16 04:39:13;;;;;;;5.10;3.22;;;12.60;99.90;;;;;;4936113;28;20057;-77
2022/05/16 04:44:26;;;;;;;7.07;3.00;;;12.70;99.90;;;;;;4951856;28;20134;-76
2022/05/16 04:46:54;;;;;;;5.50;3.08;;;12.90;99.90;;;;;;4952074;28;20125;-77
2022/05/16 04:49:20;;;;;;;5.25;3.40;;;13.00;99.90;;;;;;4936000;29;20083;-76
2022/05/16 04:51:48;;;;;;;6.22;3.03;;;13.00;99.90;;;;;;4951980;28;20130;-76
2022/05/16 04:54:14;;;;;;;5.78;3.03;;;13.10;99.90;;;;;;4935904;29;20503;-77
2022/05/16 04:56:46;;;;;;;8.45;2.80;;;13.10;99.90;;;;;;4920063;29;20039;-76
2022/05/16 04:59:15;;;;;;;5.80;3.03;;;13.10;99.90;;;;;;4919657;29;20589;-76
2022/05/16 05:01:44;;;;;;;6.75;2.83;;;13.30;99.90;;;;;;4952171;28;20317;-76
2022/05/16 05:04:13;;;;;;;5.43;2.72;;;13.70;99.90;;;;;;4952877;28;20043;-77
2022/05/16 05:06:39;;;;;;;7.93;2.92;;;14.10;99.90;;;;;;4919939;28;20145;-77
2022/05/16 05:09:06;;;;;;;6.03;3.40;;;14.20;99.90;;;;;;4919532;29;20054;-75
2022/05/16 05:14:34;;;;;;;8.48;3.17;;;14.10;99.90;;;;;;4953005;28;20134;-75
2022/05/16 05:17:06;;;;;;;5.78;3.05;;;14.50;99.90;;;;;;4936007;28;20474;-76
2022/05/16 05:19:36;;;;;;;6.30;3.00;;;15.10;99.90;;;;;;4935452;29;20050;-76
2022/05/16 05:22:06;;;;;;;6.00;3.05;;;15.60;99.90;;;;;;4935766;29;20589;-76
2022/05/16 05:24:37;;;;;;;5.03;2.45;;;16.00;99.90;;;;;;4935975;28;20044;-77
2022/05/16 05:27:03;;;;;;;5.05;2.78;;;16.40;99.90;;;;;;4951363;28;20410;-77
2022/05/16 05:29:28;;;;;;;6.97;2.72;;;16.90;99.90;;;;;;4935933;28;20690;-77
2022/05/16 05:32:00;;;;;;;7.32;2.85;;;17.20;99.20;;;;;;4937830;29;20047;-77
2022/05/16 05:34:26;;;;;;;5.38;2.60;;;17.40;97.20;;;;;;4923592;28;20453;-77
2022/05/16 05:36:53;;;;;;;5.57;3.10;;;17.50;94.40;;;;;;4923348;29;20044;-76
2022/05/16 05:39:20;;;;;;;4.53;2.50;;;17.50;95.00;;;;;;4954989;28;20051;-77
2022/05/16 05:41:46;;;;;;;8.43;3.42;;;17.60;95.40;;;;;;4923322;28;20083;-76
2022/05/16 05:44:16;;;;;;;6.10;2.30;;;17.60;92.60;;;;;;4923481;29;20045;-76
2022/05/16 05:46:42;;;;;;;6.45;3.00;;;17.40;94.10;;;;;;4923326;29;20091;-76
2022/05/16 05:49:12;;;;;;;5.38;2.80;;;17.10;95.50;;;;;;4922816;29;20082;-76
2022/05/16 05:51:40;;;;;;;4.93;2.80;;;16.80;96.60;;;;;;4938991;29;20054;-76
2022/05/16 05:54:11;;;;;;;7.18;3.10;;;16.60;96.70;;;;;;4938852;29;20082;-76
2022/05/16 05:56:39;;;;;;;6.10;2.67;;;16.40;97.80;;;;;;4923015;29;20046;-75
2022/05/16 05:59:08;;;;;;;6.53;2.90;;;16.30;97.70;;;;;;4923922;29;20118;-76
2022/05/16 06:01:34;;;;;;;6.25;3.03;;;16.30;98.00;;;;;;4922831;29;20039;-76
2022/05/16 06:04:00;;;;;;;5.45;2.90;;;16.30;96.20;;;;;;4923128;29;20054;-75
2022/05/16 06:06:26;;;;;;;6.22;2.90;;;16.20;96.60;;;;;;4939012;29;20051;-76
2022/05/16 06:08:52;;;;;;;7.32;3.00;;;16.20;97.10;;;;;;4922836;28;20070;-76
2022/05/16 06:11:18;;;;;;;7.10;2.92;;;16.20;96.60;;;;;;4954674;28;20487;-76
2022/05/16 06:13:44;;;;;;;6.05;3.28;;;16.10;97.20;;;;;;4938021;29;20469;-76
2022/05/16 06:16:12;;;;;;;6.60;3.17;;;16.20;97.80;;;;;;4922889;29;20038;-76
2022/05/16 06:18:38;;;;;;;6.80;2.80;;;16.30;97.70;;;;;;4938399;29;20407;-76
2022/05/16 06:21:05;;;;;;;6.68;3.00;;;16.30;97.40;;;;;;4922458;29;20043;-76
2022/05/16 06:23:30;;;;;;;10.15;3.58;;;16.40;97.30;;;;;;4922385;29;20463;-76
2022/05/16 06:25:57;;;;;;;8.60;3.20;;;16.50;96.20;;;;;;4922662;29;20061;-76
2022/05/16 06:28:27;;;;;;;8.52;3.08;;;16.60;95.10;;;;;;4954088;28;20384;-76
2022/05/16 06:30:56;;;;;;;6.43;3.13;;;16.60;94.90;;;;;;4922415;29;20121;-76
2022/05/16 06:33:31;;;;;;;6.35;2.92;;;16.70;95.00;;;;;;4922214;29;20039;-75
2022/05/16 06:35:59;;;;;;;6.20;3.20;;;16.70;95.40;;;;;;4938122;28;20118;-76
2022/05/16 06:38:33;;;;;;;4.72;3.00;;;16.80;94.70;;;;;;4937960;29;20051;-77
2022/05/16 06:40:59;;;;;;;5.75;2.88;;;16.90;94.70;;;;;;4938238;29;20042;-77
2022/05/16 06:43:30;;;;;;;4.40;2.60;;;17.10;93.60;;;;;;4937214;29;20142;-76
2022/05/16 06:45:56;;;;;;;6.72;2.83;;;17.10;94.10;;;;;;4921747;29;20118;-77
2022/05/16 06:48:22;;;;;;;4.43;2.70;;;17.30;94.30;;;;;;4921723;28;20051;-77
2022/05/16 06:50:50;;;;;;;5.03;2.70;;;17.40;93.80;;;;;;4938288;28;20039;-75
2022/05/16 06:53:19;;;;;;;7.00;2.78;;;17.50;92.90;;;;;;4922177;29;20106;-76
2022/05/16 06:55:44;;;;;;;7.38;2.85;;;17.70;91.80;;;;;;4921872;29;20043;-76
2022/05/16 06:58:13;;;;;;;6.63;2.97;;;17.90;89.50;;;;;;4921663;29;20228;-76
2022/05/16 07:00:44;;;;;;;5.93;2.72;;;17.90;90.60;;;;;;4922057;29;20539;-75
2022/05/16 07:03:10;;;;;;;7.10;2.63;;;18.00;91.70;;;;;;4921889;28;20055;-76
2022/05/16 07:05:36;;;;;;;7.28;2.80;;;18.00;92.50;;;;;;4921464;29;20384;-76
2022/05/16 07:08:03;;;;;;;8.95;3.03;;;18.10;93.40;;;;;;4921920;29;20075;-76
2022/05/16 07:10:31;;;;;;;4.78;2.30;;;18.20;93.30;;;;;;4921819;29;20406;-76
2022/05/16 07:13:00;;;;;;;6.53;2.55;;;18.30;92.70;;;;;;4953612;28;20055;-76
2022/05/16 07:15:26;;;;;;;7.88;2.88;;;18.40;93.30;;;;;;4921528;28;20039;-76
2022/05/16 07:17:51;;;;;;;8.27;2.90;;;18.50;92.60;;;;;;4921531;28;20070;-76
2022/05/16 07:20:18;;;;;;;4.75;2.38;;;18.50;92.80;;;;;;4921494;29;20047;-77
2022/05/16 07:22:45;;;;;;;7.30;2.63;;;18.70;86.80;;;;;;4937635;29;20043;-77
2022/05/16 07:25:13;;;;;;;5.63;2.70;;;18.90;86.20;;;;;;4921462;29;20509;-77
2022/05/16 07:27:57;;;;;;;6.68;2.40;;;19.00;82.60;;;;;;4921199;29;20478;-76
2022/05/16 07:30:25;;;;;;;3.95;2.42;;;19.10;83.80;;;;;;4921590;29;20047;-76
2022/05/16 07:32:55;;;;;;;4.80;2.67;;;19.30;85.50;;;;;;4921945;29;20443;-76
2022/05/16 07:35:25;;;;;;;7.22;2.70;;;19.40;86.00;;;;;;4937116;29;20051;-76
2022/05/16 07:37:54;;;;;;;5.72;2.83;;;19.50;85.00;;;;;;4920975;29;20082;-76
2022/05/16 07:40:28;;;;;;;4.75;2.45;;;19.60;84.50;;;;;;4921072;29;20133;-77
2022/05/16 07:43:02;;;;;;;8.70;3.42;;;19.80;84.90;;;;;;4921088;28;20047;-76
2022/05/16 07:45:31;;;;;;;5.97;2.80;;;19.90;81.30;;;;;;4920961;29;20526;-77
2022/05/16 07:48:00;;;;;;;8.25;2.80;;;20.00;82.30;;;;;;4936813;29;20051;-77
2022/05/16 07:50:29;;;;;;;7.47;3.63;;;20.10;83.10;;;;;;4921270;29;20098;-77
2022/05/16 07:52:57;;;;;;;6.57;3.03;;;20.30;83.00;;;;;;4920931;28;20039;-77
2022/05/16 07:55:25;;;;;;;8.60;3.28;;;20.70;81.70;;;;;;4920783;28;20039;-76
2022/05/16 07:57:53;;;;;;;6.28;3.13;;;20.90;81.30;;;;;;4953784;28;20087;-77
2022/05/16 08:00:24;;;;;;;5.68;3.03;;;21.00;81.20;;;;;;4936435;29;20051;-78
2022/05/16 08:02:51;;;;;;;6.32;3.28;;;21.20;80.30;;;;;;4952687;28;20047;-77
2022/05/16 08:05:17;;;;;;;5.18;3.15;;;21.40;81.10;;;;;;4920530;29;20047;-77
2022/05/16 08:10:29;;;;;;;7.90;3.05;;;22.30;76.20;;;;;;4952331;29;20051;-77
2022/05/16 08:12:58;;;;;;;7.97;3.17;;;23.20;71.90;;;;;;4920632;29;20047;-77
2022/05/16 08:15:25;;;;;;;6.22;3.55;;;23.90;69.00;;;;;;4936277;29;20043;-77
2022/05/16 08:17:51;;;;;;;5.55;2.88;;;24.30;67.80;;;;;;4920225;29;20479;-77
2022/05/16 08:20:22;;;;;;;6.93;3.30;;;24.70;62.90;;;;;;4936134;29;20495;-77
2022/05/16 08:22:48;;;;;;;6.00;2.95;;;24.90;62.20;;;;;;4920707;29;20043;-78
2022/05/16 08:25:14;;;;;;;5.45;2.72;;;25.40;62.20;;;;;;4920678;29;20050;-77
2022/05/16 08:27:44;;;;;;;6.78;3.03;;;25.90;61.70;;;;;;4951958;28;20086;-77
2022/05/16 08:30:11;;;;;;;6.97;2.78;;;26.20;59.50;;;;;;4936108;29;20047;-78
2022/05/16 08:32:37;;;;;;;4.82;2.58;;;26.40;60.20;;;;;;4920629;28;20556;-77
2022/05/16 08:35:07;;;;;;;7.10;2.90;;;26.60;58.80;;;;;;4919748;29;20047;-77
2022/05/16 08:40:25;;;;;;;6.20;2.40;;;27.20;56.30;;;;;;4952060;28;20043;-77
2022/05/16 08:43:06;;;;;;;6.68;2.70;;;27.40;56.20;;;;;;4920160;29;20549;-77
2022/05/16 08:45:35;;;;;;;3.85;2.35;;;27.30;51.60;;;;;;4936191;29;20089;-77
2022/05/16 08:48:10;;;;;;;4.85;2.25;;;27.30;55.50;;;;;;4952173;28;20058;-78
2022/05/16 08:50:49;;;;;;;6.05;2.53;;;27.40;56.40;;;;;;4936514;29;20051;-77
2022/05/16 08:53:39;;;;;;;4.53;2.03;;;27.70;55.60;;;;;;4936037;29;20063;-78
2022/05/16 08:56:18;;;;;;;6.03;2.20;;;28.50;54.00;;;;;;4936088;29;20050;-77
2022/05/16 08:58:51;;;;;;;5.15;1.98;;;29.40;53.10;;;;;;4920198;29;20043;-77
2022/05/16 09:01:32;;;;;;;4.47;2.10;;;30.00;51.60;;;;;;4936166;29;20114;-77
2022/05/16 09:04:06;;;;;;;3.78;2.20;;;30.00;48.60;;;;;;4920163;28;20521;-78
2022/05/16 09:06:42;;;;;;;4.10;2.20;;;29.60;49.80;;;;;;4922020;29;20053;-79
2022/05/16 09:09:17;;;;;;;6.68;2.70;;;29.20;50.40;;;;;;4924004;29;20039;-78
2022/05/16 09:12:05;;;;;;;5.53;2.58;;;29.10;50.20;;;;;;4940140;29;20482;-78
2022/05/16 09:14:49;;;;;;;4.38;2.10;;;29.00;48.60;;;;;;4956354;28;20047;-78
2022/05/16 09:17:32;;;;;;;5.50;2.08;;;29.10;47.90;;;;;;4939942;29;20039;-79
2022/05/16 09:20:12;;;;;;;5.22;2.45;;;29.20;49.30;;;;;;4939728;29;20050;-77
2022/05/16 09:22:53;;;;;;;4.30;2.60;;;29.10;49.20;;;;;;4939657;28;20227;-77
2022/05/16 09:25:37;;;;;;;4.82;2.53;;;28.90;49.30;;;;;;4940118;29;20043;-77
2022/05/16 09:31:24;;;;;;;9.18;2.92;;;28.40;49.00;;;;;;4923347;28;20057;-77
2022/05/16 09:33:57;;;;;;;6.22;2.60;;;28.00;48.50;;;;;;4923734;29;20111;-78
2022/05/16 09:36:32;;;;;;;5.97;3.00;;;27.70;49.70;;;;;;4939275;29;20348;-77
2022/05/16 09:39:02;;;;;;;7.18;2.92;;;27.50;50.20;;;;;;4923512;29;20516;-78
2022/05/16 09:41:48;;;;;;;3.97;2.70;;;27.20;50.20;;;;;;4923609;28;20047;-78
2022/05/16 09:44:26;;;;;;;4.88;2.78;;;27.40;51.20;;;;;;4938917;29;20514;-77
2022/05/16 09:47:15;;;;;;;5.65;2.70;;;27.60;51.80;;;;;;4939264;29;20549;-77
2022/05/16 09:50:03;;;;;;;6.90;2.70;;;28.00;51.90;;;;;;4938632;28;20133;-77
2022/05/16 09:52:36;;;;;;;5.90;3.10;;;28.30;51.30;;;;;;4923394;29;20042;-77
2022/05/16 09:55:09;;;;;;;7.00;3.38;;;28.20;50.70;;;;;;4923443;29;20113;-78
2022/05/16 09:57:59;;;;;;;5.65;2.65;;;27.80;51.10;;;;;;4923039;29;20137;-80
2022/05/16 10:00:42;;;;;;;5.93;2.80;;;27.40;51.10;;;;;;4923190;29;20062;-77
2022/05/16 10:03:40;;;;;;;5.93;2.83;;;27.00;52.10;;;;;;4923039;29;20079;-78
2022/05/16 10:06:29;;;;;;;5.53;2.65;;;26.60;52.90;;;;;;4935693;29;20047;-78
2022/05/16 10:09:08;;;;;;;8.40;3.28;;;26.20;54.10;;;;;;4938609;29;20035;-77
2022/05/16 10:11:37;;;;;;;5.53;2.47;;;25.90;55.60;;;;;;4922931;29;20043;-78
2022/05/16 10:14:03;;;;;;;3.92;2.85;;;25.70;56.50;;;;;;4922852;29;20590;-77
2022/05/16 10:16:36;;;;;;;4.28;3.08;;;25.50;58.20;;;;;;4922898;29;20040;-77
2022/05/16 10:19:12;;;;;;;5.45;2.95;;;25.40;58.70;;;;;;4922863;28;20062;-78
2022/05/16 10:21:54;;;;;;;5.47;2.78;;;25.40;59.40;;;;;;4955968;28;20163;-78
2022/05/16 10:24:23;;;;;;;5.35;3.10;;;25.60;58.40;;;;;;4953891;28;20058;-79
2022/05/16 10:26:51;;;;;;;5.45;2.88;;;25.80;57.00;;;;;;4938256;29;20043;-78
2022/05/16 10:29:23;;;;;;;5.50;3.17;;;25.90;56.80;;;;;;4937917;28;20054;-78
2022/05/16 10:34:53;;;;;;;5.85;3.10;;;25.80;56.10;;;;;;4954160;28;20363;-79
2022/05/16 10:37:21;;;;;;;6.32;2.75;;;25.50;56.50;;;;;;4955457;28;20443;-78
2022/05/16 10:39:57;;;;;;;4.80;2.78;;;25.20;56.80;;;;;;4922621;28;20039;-79
2022/05/16 10:42:47;;;;;;;6.63;2.53;;;25.00;57.50;;;;;;4922402;29;20079;-78
2022/05/16 10:45:18;;;;;;;4.60;2.75;;;24.80;58.20;;;;;;4937404;29;20494;-78
2022/05/16 10:48:17;;;;;;;4.10;2.80;;;24.60;59.00;;;;;;4937929;29;20691;-77
2022/05/16 10:50:57;;;;;;;4.78;2.63;;;24.50;60.70;;;;;;4922636;29;20051;-78
2022/05/16 10:53:30;;;;;;;5.38;2.80;;;24.50;59.40;;;;;;4938040;29;20046;-79
2022/05/16 10:56:14;;;;;;;5.55;2.83;;;24.50;60.00;;;;;;4922376;29;20118;-77
2022/05/16 10:58:54;;;;;;;5.43;2.78;;;24.50;61.00;;;;;;4937558;28;20130;-78
2022/05/16 11:01:36;;;;;;;3.92;2.30;;;24.70;60.40;;;;;;4922079;29;20478;-78
2022/05/16 11:04:32;;;;;;;4.43;2.35;;;24.70;60.30;;;;;;4937787;29;20041;-78
2022/05/16 11:07:13;;;;;;;3.55;2.20;;;24.70;60.80;;;;;;4921969;28;20055;-78
2022/05/16 11:09:52;;;;;;;5.30;2.65;;;24.90;60.90;;;;;;4922686;29;20043;-78
2022/05/16 11:12:37;;;;;;;5.07;2.53;;;24.90;61.20;;;;;;4937937;29;20050;-79
2022/05/16 11:15:26;;;;;;;4.07;2.80;;;25.00;60.80;;;;;;4937442;28;20078;-79
2022/05/16 11:18:06;;;;;;;3.67;2.40;;;25.10;61.90;;;;;;4921440;29;20043;-78
2022/05/16 11:20:43;;;;;;;3.15;2.47;;;25.00;62.40;;;;;;4937804;29;20368;-77
2022/05/16 11:23:18;;;;;;;3.58;2.40;;;25.00;62.30;;;;;;4921663;29;20383;-77
2022/05/16 11:26:10;;;;;;;3.55;2.60;;;25.00;62.20;;;;;;4937660;28;20054;-79
2022/05/16 11:29:20;;;;;;;3.58;2.40;;;25.00;61.90;;;;;;4952686;28;20043;-78
2022/05/16 11:32:07;;;;;;;5.78;3.03;;;24.90;61.40;;;;;;4937570;28;20519;-78
2022/05/16 11:34:52;;;;;;;5.20;3.00;;;24.90;62.00;;;;;;4922032;28;20039;-78
2022/05/16 11:37:51;;;;;;;5.28;2.50;;;24.80;61.30;;;;;;4937385;29;20043;-78
2022/05/16 11:40:24;;;;;;;6.32;2.65;;;24.90;65.10;;;;;;4937689;28;20457;-78
2022/05/16 11:43:14;;;;;;;4.78;3.10;;;24.90;62.70;;;;;;4937408;29;20058;-78
2022/05/16 11:46:17;;;;;;;6.03;3.05;;;24.90;62.50;;;;;;4953142;28;20549;-77
2022/05/16 11:48:55;;;;;;;3.47;2.95;;;24.90;63.10;;;;;;4937432;29;20045;-77
2022/05/16 11:51:53;;;;;;;4.78;2.78;;;24.80;62.50;;;;;;4953135;28;20039;-78
2022/05/16 11:54:44;;;;;;;4.35;2.83;;;24.80;64.50;;;;;;4937259;29;20487;-78
2022/05/16 12:03:16;;;;;;;7.95;3.78;;;25.00;65.60;;;;;;4955011;28;20082;-80
2022/05/16 12:05:48;;;;;;;4.07;3.13;;;25.10;66.70;;;;;;4934489;29;20051;-79
2022/05/16 12:08:38;;;;;;;5.22;3.60;;;25.40;65.50;;;;;;4923236;29;20035;-80
2022/05/16 12:11:24;;;;;;;4.70;3.30;;;25.90;66.60;;;;;;4923730;29;20039;-80
2022/05/16 12:14:02;;;;;;;4.35;3.50;;;26.60;65.50;;;;;;4938152;29;20051;-80
2022/05/16 12:16:49;;;;;;;5.18;3.75;;;27.30;65.10;;;;;;4922692;29;20113;-79
2022/05/16 12:19:26;;;;;;;4.63;3.47;;;28.00;64.00;;;;;;4923162;29;20039;-80
2022/05/16 12:22:01;;;;;;;5.90;3.20;;;29.40;60.70;;;;;;4938421;28;20046;-80
2022/05/16 12:24:41;;;;;;;3.88;3.33;;;30.30;57.90;;;;;;4954886;28;20066;-78
2022/05/16 12:27:24;;;;;;;4.85;2.97;;;31.00;57.60;;;;;;4954445;28;20047;-79
2022/05/16 12:29:52;;;;;;;;;;;31.40;56.00;;;;;;4956265;28;20040;-79
2022/05/16 12:32:29;;;;;;;4.40;3.33;;;31.70;52.80;;;;;;4954410;28;19922;-79
2022/05/16 12:35:33;;;;;;;4.20;2.97;;;31.40;53.60;;;;;;4937887;29;20043;-79
2022/05/16 12:37:59;;;;;;;4.93;3.55;;;31.00;53.40;;;;;;4938067;29;20051;-79
2022/05/16 12:40:34;;;;;;;4.45;3.60;;;30.30;55.00;;;;;;4921251;29;20049;-79
2022/05/16 12:43:14;;;;;;;4.13;3.63;;;29.90;54.00;;;;;;4937976;29;20047;-78
2022/05/16 12:45:54;;;;;;;5.82;4.22;;;29.50;55.60;;;;;;4922135;29;20061;-79
2022/05/16 12:48:53;;;;;;;6.10;4.18;;;29.20;55.80;;;;;;4922597;29;20062;-78
2022/05/16 12:51:42;;;;;;;5.47;4.90;;;28.90;55.40;;;;;;4938049;29;20065;-79
2022/05/16 12:54:46;;;;;;;7.78;5.00;;;28.60;56.30;;;;;;4938848;29;20114;-78
2022/05/16 12:57:21;;;;;;;8.75;4.97;;;28.30;57.00;;;;;;4922978;29;20047;-79
2022/05/16 12:59:55;;;;;;;7.00;5.30;;;28.10;58.20;;;;;;4938751;29;20039;-78
2022/05/16 13:02:30;;;;;;;6.25;5.43;;;28.00;59.10;;;;;;4938929;29;20050;-79
2022/05/16 13:05:09;;;;;;;6.72;5.70;;;28.10;59.10;;;;;;4954566;28;20048;-78
2022/05/16 13:08:16;;;;;;;6.95;6.28;;;28.40;60.00;;;;;;4922758;28;20085;-76
2022/05/16 13:10:59;;;;;;;8.60;6.78;;;29.10;60.30;;;;;;4896974;29;20619;-79
2022/05/16 13:13:34;;;;;;;7.47;6.00;;;30.10;57.40;;;;;;4880895;29;20044;-78
2022/05/16 13:16:19;;;;;;;8.48;6.90;;;30.90;56.70;;;;;;4918940;28;20525;-79
2022/05/16 13:18:56;;;;;;;8.40;7.05;;;31.40;54.70;;;;;;4938020;29;20122;-79
2022/05/16 13:21:31;;;;;;;7.97;7.18;;;31.60;53.80;;;;;;4938374;29;20040;-79
2022/05/16 13:24:00;;;;;;;8.40;7.10;;;31.80;52.90;;;;;;4922650;29;20122;-79
2022/05/16 13:29:21;;;;;;;8.75;7.85;;;32.30;52.80;;;;;;4954917;28;20043;-80
2022/05/16 13:31:56;;;;;;;8.15;7.35;;;32.60;52.20;;;;;;4922710;29;20043;-78
2022/05/16 13:34:41;;;;;;;8.82;7.07;;;32.50;51.60;;;;;;4922834;29;20515;-78
2022/05/16 13:37:11;;;;;;;8.32;6.43;;;31.90;51.00;;;;;;4939392;28;20167;-79
2022/05/16 13:39:43;;;;;;;;;;;31.40;52.70;;;;;;4923997;29;20045;-80
2022/05/16 13:42:10;;;;;;;9.38;8.52;;;30.80;50.50;;;;;;4954853;29;19969;-80
2022/05/16 13:44:38;;;;;;;9.65;8.75;;;30.30;53.30;;;;;;4923083;28;20047;-79
2022/05/16 13:47:13;;;;;;;8.98;7.75;;;29.80;53.50;;;;;;4923744;29;20043;-79